Time;durP1;ratioP1;P1;durP2;ratioP2;P2;SDS_P1;SDS_P2;PMS_P1;PMS_P2;Temp;Humidity;BMP_temperature;BMP_pressure;BME280_temperature;BME280_humidity;BME280_pressure;Samples;Min_cycle;Max_cycle;Signal;HPM_P1;HPM_P2
2021/07/08 00:00:00;;;;;;;11.43;5.47;;;;;;;19.31;80.44;101402.30;1824921;77;20876;-71
2021/07/08 00:02:27;;;;;;;11.10;6.60;;;;;;;19.26;80.80;101398.70;1824757;77;20951;-72
2021/07/08 00:04:54;;;;;;;15.23;6.65;;;;;;;19.23;80.76;101405.63;1824815;77;20844;-71
2021/07/08 00:07:22;;;;;;;14.15;6.97;;;;;;;19.22;81.08;101409.24;1824828;78;21365;-71
2021/07/08 00:09:51;;;;;;;13.95;6.33;;;;;;;19.21;81.31;101407.56;1824938;78;20867;-71
2021/07/08 00:12:19;;;;;;;11.05;6.08;;;;;;;19.22;81.48;101409.73;1824800;77;21421;-71
2021/07/08 00:14:47;;;;;;;13.08;5.72;;;;;;;19.23;81.48;101411.41;1824897;78;20970;-70
2021/07/08 00:17:15;;;;;;;10.50;6.08;;;;;;;19.24;81.66;101403.80;1824814;77;21444;-70
2021/07/08 00:19:44;;;;;;;13.38;7.12;;;;;;;19.24;81.72;101407.79;1824890;77;21004;-70
2021/07/08 00:22:11;;;;;;;8.18;6.47;;;;;;;19.24;81.93;101406.46;1825001;77;21097;-71
2021/07/08 00:24:38;;;;;;;14.68;6.47;;;;;;;19.25;81.86;101406.80;1821228;78;21452;-71
2021/07/08 00:27:05;;;;;;;8.45;5.62;;;;;;;19.24;81.81;101406.46;1821536;78;20943;-71
2021/07/08 00:29:32;;;;;;;6.25;5.15;;;;;;;19.24;81.77;101411.28;1821415;78;20942;-71
2021/07/08 00:32:00;;;;;;;11.97;6.03;;;;;;;19.23;81.73;101407.41;1821297;78;21377;-72
2021/07/08 00:34:27;;;;;;;7.72;5.25;;;;;;;19.25;81.82;101414.32;1821243;78;21161;-73
2021/07/08 00:36:56;;;;;;;6.80;5.40;;;;;;;19.26;81.83;101413.33;1821215;78;20978;-72
2021/07/08 00:39:23;;;;;;;8.90;4.75;;;;;;;19.27;81.54;101416.83;1821330;78;20868;-71
2021/07/08 00:41:49;;;;;;;7.85;4.92;;;;;;;19.28;81.49;101419.86;1821544;78;20934;-72
2021/07/08 00:44:16;;;;;;;6.30;3.50;;;;;;;19.29;80.27;101415.38;1821528;78;20939;-72
2021/07/08 00:46:43;;;;;;;9.45;4.75;;;;;;;19.34;79.70;101425.13;1821668;78;21541;-72
2021/07/08 00:49:10;;;;;;;5.58;4.22;;;;;;;19.39;80.11;101429.11;1821592;78;21349;-71
2021/07/08 00:51:39;;;;;;;5.78;3.00;;;;;;;19.42;79.16;101428.84;1821366;78;20960;-72
2021/07/08 00:54:06;;;;;;;3.77;3.10;;;;;;;19.48;76.64;101428.81;1821397;78;20974;-72
2021/07/08 00:56:35;;;;;;;4.37;2.70;;;;;;;19.51;75.88;101428.55;1821417;78;21401;-71
2021/07/08 00:59:07;;;;;;;6.30;3.80;;;;;;;19.55;74.39;101423.82;1821279;78;21144;-71
2021/07/08 01:01:36;;;;;;;7.92;4.53;;;;;;;19.58;73.75;101427.53;1821471;78;20923;-71
2021/07/08 01:04:03;;;;;;;8.43;4.75;;;;;;;19.62;75.78;101424.48;1821233;78;21357;-72
2021/07/08 01:06:31;;;;;;;4.87;4.28;;;;;;;19.63;76.77;101435.50;1821336;78;20947;-71
2021/07/08 01:09:00;;;;;;;6.22;4.40;;;;;;;19.62;77.25;101435.12;1821406;78;20958;-71
2021/07/08 01:11:27;;;;;;;4.78;4.25;;;;;;;19.61;77.59;101437.94;1821411;78;21518;-70
2021/07/08 01:13:55;;;;;;;7.95;4.00;;;;;;;19.59;77.89;101446.53;1821443;78;21001;-70
2021/07/08 01:16:24;;;;;;;12.15;4.97;;;;;;;19.58;77.90;101443.50;1821410;78;20911;-70
2021/07/08 01:18:53;;;;;;;6.95;4.12;;;;;;;19.58;77.87;101442.17;1821524;78;20884;-70
2021/07/08 01:21:27;;;;;;;5.70;4.30;;;;;;;19.56;77.85;101449.44;1821604;78;20904;-71
2021/07/08 01:23:56;;;;;;;7.92;3.87;;;;;;;19.52;77.68;101448.88;1823478;78;21162;-69
2021/07/08 01:26:23;;;;;;;5.80;4.03;;;;;;;19.50;77.55;101455.27;1824974;78;20899;-71
2021/07/08 01:28:51;;;;;;;7.28;4.37;;;;;;;19.48;77.47;101457.25;1825013;78;20860;-71
2021/07/08 01:31:18;;;;;;;5.37;3.72;;;;;;;19.43;77.54;101459.80;1824845;78;20899;-69
2021/07/08 01:33:46;;;;;;;8.23;3.87;;;;;;;19.40;77.28;101457.88;1824863;78;20938;-71
2021/07/08 01:36:13;;;;;;;7.92;3.95;;;;;;;19.36;77.09;101459.09;1825051;78;21153;-71
2021/07/08 01:38:40;;;;;;;12.80;3.92;;;;;;;19.32;76.95;101460.33;1824905;78;20836;-70
2021/07/08 01:41:07;;;;;;;9.63;3.37;;;;;;;19.28;76.77;101461.58;1824920;78;20919;-71
2021/07/08 01:43:38;;;;;;;7.55;3.72;;;;;;;19.26;76.82;101463.02;1824803;78;21321;-71
2021/07/08 01:46:07;;;;;;;7.08;3.20;;;;;;;19.22;76.91;101463.75;1825064;78;21349;-70
2021/07/08 01:48:35;;;;;;;12.93;3.60;;;;;;;19.18;77.10;101463.64;1824878;78;21991;-70
2021/07/08 01:51:26;;;;;;;7.83;3.35;;;;;;;19.14;77.16;101467.56;1824888;78;20899;-71
2021/07/08 01:53:53;;;;;;;9.20;3.75;;;;;;;19.11;77.12;101469.61;1824943;78;20888;-71
2021/07/08 01:56:20;;;;;;;8.58;4.10;;;;;;;19.08;77.18;101479.19;1824865;78;20883;-70
2021/07/08 01:58:48;;;;;;;6.40;4.28;;;;;;;19.04;77.42;101475.43;1824832;78;20907;-70
2021/07/08 02:01:16;;;;;;;8.23;3.98;;;;;;;19.00;77.44;101479.30;1824882;78;21017;-70
2021/07/08 02:03:43;;;;;;;6.65;3.55;;;;;;;18.95;77.41;101478.84;1824819;78;20859;-70
2021/07/08 02:06:11;;;;;;;8.85;3.58;;;;;;;18.91;77.38;101473.42;1824593;78;20982;-70
2021/07/08 02:08:41;;;;;;;9.90;4.22;;;;;;;18.89;77.50;101482.00;1824819;78;20852;-70
2021/07/08 02:11:10;;;;;;;15.65;4.40;;;;;;;18.84;77.71;101482.38;1824941;78;20895;-71
2021/07/08 02:13:37;;;;;;;7.87;3.98;;;;;;;18.82;77.76;101490.95;1824974;78;22168;-71
2021/07/08 02:16:06;;;;;;;14.80;4.97;;;;;;;18.80;77.69;101492.89;1825049;78;20943;-70
2021/07/08 02:18:33;;;;;;;8.20;4.12;;;;;;;18.78;77.48;101491.33;1824810;78;20860;-72
2021/07/08 02:21:00;;;;;;;15.32;4.70;;;;;;;18.75;77.51;101488.41;1824888;78;20930;-71
2021/07/08 02:23:27;;;;;;;11.95;5.10;;;;;;;18.75;77.69;101494.22;1824887;78;20919;-71
2021/07/08 02:25:54;;;;;;;10.53;4.42;;;;;;;18.74;77.54;101497.83;1825227;78;21505;-70
2021/07/08 02:28:22;;;;;;;6.25;4.33;;;;;;;18.72;77.39;101497.97;1824806;78;20930;-71
2021/07/08 02:30:49;;;;;;;16.00;4.70;;;;;;;18.70;77.10;101505.22;1824894;78;20891;-71
2021/07/08 02:33:16;;;;;;;13.62;4.22;;;;;;;18.68;76.88;101509.81;1824775;78;20911;-70
2021/07/08 02:35:42;;;;;;;10.48;4.20;;;;;;;18.65;77.10;101508.70;1825281;78;20911;-71
2021/07/08 02:38:09;;;;;;;12.35;3.92;;;;;;;18.63;77.37;101516.81;1824908;78;21462;-70
2021/07/08 02:40:38;;;;;;;9.18;4.17;;;;;;;18.60;77.70;101513.06;1825146;78;20860;-71
2021/07/08 02:43:05;;;;;;;13.08;4.22;;;;;;;18.59;77.89;101515.37;1824878;78;20974;-72
2021/07/08 02:45:34;;;;;;;7.72;4.80;;;;;;;18.59;78.07;101515.37;1824868;78;20880;-70
2021/07/08 02:48:05;;;;;;;7.42;3.85;;;;;;;18.58;77.96;101518.14;1824840;78;21369;-70
2021/07/08 02:50:33;;;;;;;9.05;4.75;;;;;;;18.56;78.34;101516.08;1824788;78;21158;-70
2021/07/08 02:53:00;;;;;;;10.72;4.60;;;;;;;18.56;78.44;101519.58;1824837;78;20943;-69
2021/07/08 02:55:28;;;;;;;6.25;3.75;;;;;;;18.55;78.62;101516.58;1825192;78;21432;-71
2021/07/08 02:57:55;;;;;;;8.95;3.90;;;;;;;18.54;78.85;101517.55;1824797;78;20954;-70
2021/07/08 03:00:24;;;;;;;7.22;4.10;;;;;;;18.56;78.85;101518.74;1824811;78;20863;-70
2021/07/08 03:02:51;;;;;;;6.22;3.77;;;;;;;18.57;78.94;101527.93;1824802;78;21170;-71
2021/07/08 03:05:18;;;;;;;13.83;5.00;;;;;;;18.59;78.98;101517.19;1824798;78;20907;-71
2021/07/08 03:07:47;;;;;;;7.17;5.00;;;;;;;18.60;78.88;101522.84;1824906;78;20887;-71
2021/07/08 03:10:15;;;;;;;8.80;4.80;;;;;;;18.58;78.92;101518.97;1824999;78;20935;-70
2021/07/08 03:12:42;;;;;;;9.40;4.47;;;;;;;18.58;79.17;101517.65;1825077;78;20868;-71
2021/07/08 03:15:11;;;;;;;9.18;4.17;;;;;;;18.62;78.97;101520.42;1824887;78;21057;-71
2021/07/08 03:17:38;;;;;;;9.33;4.72;;;;;;;18.69;78.83;101518.62;1824988;78;20923;-71
2021/07/08 03:20:12;;;;;;;10.30;4.45;;;;;;;18.73;78.77;101520.91;1824799;78;21453;-70
2021/07/08 03:22:40;;;;;;;6.15;5.15;;;;;;;18.76;78.78;101518.48;1825174;78;21520;-70
2021/07/08 03:25:09;;;;;;;7.78;4.20;;;;;;;18.77;78.90;101514.87;1821541;78;20911;-70
2021/07/08 03:27:36;;;;;;;5.08;3.47;;;;;;;18.79;79.04;101512.48;1821732;78;21113;-70
2021/07/08 03:30:07;;;;;;;5.47;2.58;;;;;;;18.84;78.98;101521.41;1821240;78;20844;-72
2021/07/08 03:32:34;;;;;;;8.20;3.10;;;;;;;18.88;78.12;101523.34;1821461;78;20848;-72
2021/07/08 03:35:01;;;;;;;6.87;4.12;;;;;;;18.92;77.76;101519.44;1821270;78;20927;-72
2021/07/08 03:37:28;;;;;;;4.92;2.92;;;;;;;18.98;76.77;101521.61;1821291;78;21409;-74
2021/07/08 03:39:55;;;;;;;7.33;4.40;;;;;;;19.07;76.09;101526.17;1821379;78;21160;-71
2021/07/08 03:42:22;;;;;;;9.65;3.85;;;;;;;19.15;75.48;101521.58;1821460;78;20904;-71
2021/07/08 03:44:49;;;;;;;9.85;3.47;;;;;;;19.23;76.87;101519.11;1821388;78;21002;-71
2021/07/08 03:47:16;;;;;;;6.08;2.67;;;;;;;19.30;77.02;101528.76;1821500;78;20943;-71
2021/07/08 03:49:43;;;;;;;4.37;2.35;;;;;;;19.36;74.98;101533.09;1821436;78;21425;-71
2021/07/08 03:52:10;;;;;;;6.80;2.70;;;;;;;19.43;73.71;101534.29;1821244;78;21516;-72
2021/07/08 03:54:38;;;;;;;8.03;3.30;;;;;;;19.52;72.66;101538.47;1821235;78;20919;-72
2021/07/08 03:57:05;;;;;;;6.15;2.33;;;;;;;19.59;71.57;101543.16;1821391;78;20872;-72
2021/07/08 03:59:32;;;;;;;4.62;2.35;;;;;;;19.67;71.04;101541.18;1821261;78;21539;-71
2021/07/08 04:01:59;;;;;;;6.87;2.92;;;;;;;19.76;70.20;101544.42;1821324;78;20875;-72
2021/07/08 04:04:26;;;;;;;3.70;2.42;;;;;;;19.85;69.85;101540.14;1821345;78;22093;-72
2021/07/08 04:06:53;;;;;;;12.28;2.60;;;;;;;19.93;69.20;101544.34;1821240;78;20931;-72
2021/07/08 04:09:20;;;;;;;9.10;2.80;;;;;;;20.04;68.76;101546.94;1821241;78;20934;-73
2021/07/08 04:11:47;;;;;;;4.72;1.70;;;;;;;20.15;68.34;101543.35;1821186;78;20912;-73
2021/07/08 04:14:14;;;;;;;3.52;1.92;;;;;;;20.30;68.35;101551.86;1821700;78;21322;-74
2021/07/08 04:16:42;;;;;;;6.47;1.92;;;;;;;20.58;68.27;101549.47;1821433;78;21137;-72
2021/07/08 04:19:09;;;;;;;6.78;2.15;;;;;;;21.05;67.33;101551.91;1821337;78;21439;-72
2021/07/08 04:21:36;;;;;;;4.08;2.12;;;;;;;21.60;65.65;101550.09;1820978;78;20939;-71
2021/07/08 04:24:03;;;;;;;2.52;1.80;;;;;;;22.23;64.16;101555.42;1822471;78;20911;-73
2021/07/08 04:26:32;;;;;;;7.10;2.27;;;;;;;22.83;61.63;101557.70;1824837;78;20892;-72
2021/07/08 04:28:59;;;;;;;4.12;2.17;;;;;;;23.43;59.49;101551.83;1824844;78;22018;-72
2021/07/08 04:31:26;;;;;;;5.47;1.80;;;;;;;23.95;58.30;101553.30;1824618;78;20994;-72
2021/07/08 04:33:52;;;;;;;9.28;2.05;;;;;;;24.46;56.89;101551.59;1824694;78;20951;-72
2021/07/08 04:36:20;;;;;;;7.42;2.55;;;;;;;24.96;55.13;101561.52;1824682;78;21405;-73
2021/07/08 04:38:52;;;;;;;4.78;1.72;;;;;;;25.41;54.12;101560.30;1824721;78;20978;-73
2021/07/08 04:41:16;;;;;;;9.03;2.42;;;;;;;25.80;53.36;101561.47;1824399;78;21139;-72
2021/07/08 04:43:43;;;;;;;7.37;1.98;;;;;;;26.17;52.07;101564.16;1824804;78;21377;-73
2021/07/08 04:46:09;;;;;;;2.52;1.80;;;;;;;26.44;50.50;101565.58;1824883;78;20938;-73
2021/07/08 04:48:37;;;;;;;4.05;1.60;;;;;;;26.68;49.24;101572.75;1824929;78;20919;-73
2021/07/08 04:51:04;;;;;;;3.87;2.17;;;;;;;26.97;49.35;101580.18;1825323;78;20864;-72
2021/07/08 04:53:31;;;;;;;3.40;1.77;;;;;;;27.26;48.16;101579.53;1824861;78;21453;-73
2021/07/08 04:55:57;;;;;;;3.02;1.55;;;;;;;27.55;47.81;101569.89;1825356;78;20912;-72
2021/07/08 04:58:27;;;;;;;8.83;2.10;;;;;;;27.78;47.46;101573.06;1824950;78;20947;-73
2021/07/08 05:00:54;;;;;;;5.72;1.92;;;;;;;27.97;45.90;101577.98;1824875;78;21009;-73
2021/07/08 05:03:21;;;;;;;2.92;2.12;;;;;;;28.08;45.01;101572.62;1824865;78;20879;-68
2021/07/08 05:05:49;;;;;;;4.20;2.12;;;;;;;28.11;43.94;101577.14;1825243;78;21525;-72
2021/07/08 05:08:16;;;;;;;4.10;2.20;;;;;;;28.16;44.34;101578.45;1825057;78;20896;-72
2021/07/08 05:10:43;;;;;;;6.92;1.92;;;;;;;28.29;43.72;101578.65;1825257;78;20876;-74
2021/07/08 05:13:10;;;;;;;7.25;1.82;;;;;;;28.43;44.38;101576.97;1824827;78;20879;-73
2021/07/08 05:15:37;;;;;;;4.05;1.80;;;;;;;28.58;44.29;101578.35;1825021;78;20895;-73
2021/07/08 05:18:04;;;;;;;9.03;2.05;;;;;;;28.82;44.24;101583.95;1824977;78;21565;-73
2021/07/08 05:20:32;;;;;;;6.00;1.95;;;;;;;29.06;43.88;101576.86;1825083;78;21449;-72
2021/07/08 05:23:04;;;;;;;2.75;1.92;;;;;;;29.37;42.93;101581.66;1824937;78;20998;-68
2021/07/08 05:25:31;;;;;;;4.50;2.05;;;;;;;29.69;42.54;101582.52;1822518;78;20888;-71
2021/07/08 05:27:58;;;;;;;3.27;1.82;;;;;;;29.89;41.45;101578.63;1821463;78;20963;-71
2021/07/08 05:30:26;;;;;;;12.65;1.80;;;;;;;30.06;41.10;101581.02;1821498;78;21429;-71
2021/07/08 05:32:54;;;;;;;5.60;2.00;;;;;;;30.25;41.47;101579.48;1821568;78;20864;-72
2021/07/08 05:35:21;;;;;;;7.83;2.45;;;;;;;30.40;40.67;101580.23;1821488;78;20856;-71
2021/07/08 05:37:48;;;;;;;2.15;1.72;;;;;;;30.48;40.33;101581.92;1821474;78;20971;-68
2021/07/08 05:40:17;;;;;;;3.75;1.82;;;;;;;30.67;41.43;101578.48;1821682;78;21440;-66
2021/07/08 05:42:45;;;;;;;6.20;1.80;;;;;;;30.90;40.14;101578.17;1821137;78;21567;-68
2021/07/08 05:45:13;;;;;;;5.08;2.25;;;;;;;31.12;39.23;101582.09;1821703;78;21406;-68
2021/07/08 05:47:39;;;;;;;4.37;2.40;;;;;;;31.36;38.36;101573.38;1821344;78;20915;-68
2021/07/08 05:50:09;;;;;;;4.33;1.52;;;;;;;31.59;38.90;101572.17;1821720;78;20879;-67
2021/07/08 05:52:35;;;;;;;2.87;2.40;;;;;;;31.81;38.16;101568.73;1821676;78;20966;-67
2021/07/08 05:55:04;;;;;;;5.40;2.15;;;;;;;31.94;37.18;101568.72;1821460;78;21523;-68
2021/07/08 05:57:31;;;;;;;5.45;1.62;;;;;;;32.01;37.29;101576.88;1821327;78;20875;-68
2021/07/08 05:59:58;;;;;;;13.18;2.30;;;;;;;32.17;37.37;101571.52;1821429;78;21496;-67
2021/07/08 06:02:25;;;;;;;4.08;1.67;;;;;;;32.38;37.01;101563.65;1821625;78;20844;-68
2021/07/08 06:04:51;;;;;;;5.37;1.70;;;;;;;32.40;36.23;101562.38;1821460;78;20915;-68
2021/07/08 06:07:18;;;;;;;5.65;1.57;;;;;;;32.51;37.42;101564.95;1821634;78;21456;-68
2021/07/08 06:09:45;;;;;;;8.75;2.08;;;;;;;32.57;36.25;101562.78;1821215;78;20848;-68
2021/07/08 06:12:12;;;;;;;5.10;1.50;;;;;;;32.63;36.28;101565.14;1821770;78;20840;-68
2021/07/08 06:14:39;;;;;;;4.80;1.85;;;;;;;32.75;37.04;101570.72;1821326;78;20892;-68
2021/07/08 06:17:07;;;;;;;7.67;1.80;;;;;;;33.00;36.49;101564.03;1821486;78;20923;-68
2021/07/08 06:19:34;;;;;;;10.65;1.70;;;;;;;33.21;35.99;101564.22;1821759;78;21711;-67
2021/07/08 06:22:03;;;;;;;6.92;1.90;;;;;;;33.34;35.24;101572.28;1821387;78;21532;-68
2021/07/08 06:24:30;;;;;;;5.28;1.72;;;;;;;33.53;34.11;101573.70;1821360;78;20939;-67
2021/07/08 06:26:57;;;;;;;3.92;1.90;;;;;;;33.69;33.94;101573.73;1821063;78;20927;-68
2021/07/08 06:29:24;;;;;;;4.55;1.75;;;;;;;33.85;33.55;101571.26;1821488;78;20884;-69
2021/07/08 06:31:51;;;;;;;2.60;1.60;;;;;;;33.97;32.92;101563.21;1821390;78;21191;-69
2021/07/08 06:34:18;;;;;;;4.42;1.57;;;;;;;33.94;33.66;101571.81;1821383;78;20978;-69
2021/07/08 06:36:47;;;;;;;3.83;1.60;;;;;;;34.01;33.05;101567.66;1821423;78;20975;-70
2021/07/08 06:39:13;;;;;;;5.20;1.75;;;;;;;34.14;32.60;101566.72;1821411;78;20884;-70
2021/07/08 06:41:41;;;;;;;5.67;1.42;;;;;;;34.31;33.26;101568.30;1821370;78;21366;-70
2021/07/08 06:44:07;;;;;;;4.75;1.75;;;;;;;34.50;33.45;101570.50;1821405;78;21119;-69
2021/07/08 06:46:34;;;;;;;1.47;1.25;;;;;;;34.65;33.08;101568.24;1821272;78;20840;-73
2021/07/08 06:49:02;;;;;;;5.17;1.65;;;;;;;34.76;31.71;101570.19;1821095;78;20919;-72
2021/07/08 06:51:30;;;;;;;3.62;1.95;;;;;;;34.91;31.95;101568.42;1821564;78;20935;-72
2021/07/08 06:53:58;;;;;;;3.27;1.40;;;;;;;35.02;31.17;101570.89;1821515;78;20922;-71
2021/07/08 06:56:24;;;;;;;5.15;1.85;;;;;;;35.02;31.51;101570.36;1821418;78;21126;-72
2021/07/08 06:58:51;;;;;;;5.28;1.80;;;;;;;35.06;31.66;101572.92;1821256;78;20825;-72
2021/07/08 07:01:18;;;;;;;5.45;1.60;;;;;;;35.17;31.14;101576.75;1821411;78;20931;-74
2021/07/08 07:03:45;;;;;;;7.90;1.77;;;;;;;35.31;31.01;101577.91;1821381;78;20897;-74
2021/07/08 07:06:12;;;;;;;5.20;1.57;;;;;;;35.42;30.87;101578.50;1821561;78;20872;-72
2021/07/08 07:08:39;;;;;;;7.15;1.85;;;;;;;35.53;31.23;101576.83;1821707;78;21787;-72
2021/07/08 07:11:06;;;;;;;6.15;1.47;;;;;;;35.64;30.92;101591.05;1821180;78;20967;-73
2021/07/08 07:13:34;;;;;;;4.17;1.70;;;;;;;35.74;30.47;101579.02;1821442;78;20892;-71
2021/07/08 07:16:01;;;;;;;6.30;1.50;;;;;;;35.85;30.74;101586.38;1821336;78;20903;-70
2021/07/08 07:18:28;;;;;;;6.47;1.70;;;;;;;35.93;30.65;101580.26;1821346;78;20978;-73
2021/07/08 07:20:55;;;;;;;10.75;2.10;;;;;;;36.01;30.79;101569.81;1821689;78;21115;-71
2021/07/08 07:23:22;;;;;;;6.37;2.20;;;;;;;36.14;30.59;101581.05;1821432;78;21006;-72
2021/07/08 07:25:50;;;;;;;3.35;1.95;;;;;;;36.16;30.33;101572.09;1823579;78;20923;-73
2021/07/08 07:28:17;;;;;;;3.75;1.95;;;;;;;36.10;30.02;101574.38;1824913;78;20954;-73
2021/07/08 07:30:44;;;;;;;3.12;1.57;;;;;;;36.17;30.07;101578.38;1824880;78;20853;-71
2021/07/08 07:33:11;;;;;;;6.78;1.52;;;;;;;36.14;29.68;101575.59;1824738;78;21518;-70
2021/07/08 07:35:38;;;;;;;7.78;1.45;;;;;;;36.15;30.28;101581.88;1825002;78;20916;-71
2021/07/08 07:38:10;;;;;;;5.47;1.72;;;;;;;36.22;30.52;101586.67;1824611;78;20903;-74
2021/07/08 07:40:34;;;;;;;4.95;2.02;;;;;;;36.29;30.62;101586.03;1824284;78;20899;-71
2021/07/08 07:43:01;;;;;;;5.62;1.45;;;;;;;36.25;29.75;101593.86;1824788;78;21310;-72
2021/07/08 07:45:28;;;;;;;5.65;1.55;;;;;;;36.11;29.84;101589.70;1824895;78;21546;-74
2021/07/08 07:47:55;;;;;;;8.13;1.52;;;;;;;36.03;30.58;101586.79;1824822;78;21441;-72
2021/07/08 07:50:24;;;;;;;5.50;1.90;;;;;;;35.96;30.04;101590.19;1825049;78;20875;-73
2021/07/08 07:52:52;;;;;;;2.85;1.90;;;;;;;35.88;29.90;101587.80;1824645;78;21457;-76
2021/07/08 07:55:19;;;;;;;3.42;1.60;;;;;;;35.77;30.73;101587.27;1825099;78;20923;-74
2021/07/08 07:57:45;;;;;;;3.95;2.20;;;;;;;35.71;30.32;101584.97;1824739;78;21484;-72
2021/07/08 08:00:13;;;;;;;3.83;1.77;;;;;;;35.69;31.36;101589.29;1824667;78;20911;-72
2021/07/08 08:02:40;;;;;;;6.37;1.60;;;;;;;35.88;31.43;101588.63;1824785;78;20880;-73
2021/07/08 08:05:21;;;;;;;7.08;1.47;;;;;;;36.08;30.39;101582.80;1824944;78;21463;-79
2021/07/08 08:10:23;;;;;;;5.20;1.60;;;;;;;36.27;30.44;101592.27;1824855;78;21999;-73
2021/07/08 08:12:50;;;;;;;3.45;1.47;;;;;;;36.31;29.88;101590.17;1824801;78;20937;-72
2021/07/08 08:15:18;;;;;;;11.03;2.22;;;;;;;36.30;29.12;101589.86;1824816;78;21401;-73
2021/07/08 08:17:47;;;;;;;5.22;1.57;;;;;;;36.42;28.84;101587.64;1824743;78;20899;-72
2021/07/08 08:20:14;;;;;;;4.67;2.37;;;;;;;36.57;29.50;101585.22;1824733;78;20856;-72
2021/07/08 08:22:42;;;;;;;9.40;2.50;;;;;;;36.69;29.06;101590.16;1825105;78;21044;-73
2021/07/08 08:25:11;;;;;;;4.87;1.70;;;;;;;36.84;29.37;101595.62;1824546;78;20919;-74
2021/07/08 08:27:38;;;;;;;4.22;1.77;;;;;;;36.93;29.22;101594.15;1824719;78;20915;-72
2021/07/08 08:30:07;;;;;;;5.37;1.42;;;;;;;36.99;28.97;101593.17;1825079;78;20848;-68
2021/07/08 08:32:33;;;;;;;5.60;1.77;;;;;;;37.05;28.39;101600.41;1824792;78;20988;-72
2021/07/08 08:35:00;;;;;;;7.22;2.10;;;;;;;37.10;28.37;101594.23;1825083;78;21389;-73
2021/07/08 08:37:27;;;;;;;4.90;1.85;;;;;;;37.17;29.08;101590.80;1824759;78;20931;-73
2021/07/08 08:40:41;;;;;;;4.58;2.25;;;;;;;37.37;28.74;101583.47;1798696;79;22605;-71
2021/07/08 08:43:08;;;;;;;6.65;1.80;;;;;;;37.42;28.73;101586.83;1758328;80;20920;-73
2021/07/08 08:45:36;;;;;;;6.15;1.87;;;;;;;37.45;27.71;101579.52;1758351;80;21158;-72
2021/07/08 08:48:08;;;;;;;2.30;1.82;;;;;;;37.46;28.42;101588.82;1758262;81;21358;-74
2021/07/08 08:50:43;;;;;;;5.37;1.77;;;;;;;37.47;27.48;101579.55;1758373;80;20968;-72
2021/07/08 08:53:11;;;;;;;5.65;1.92;;;;;;;37.49;28.20;101577.39;1758031;81;20999;-73
2021/07/08 08:55:39;;;;;;;5.70;1.87;;;;;;;37.59;28.08;101578.66;1758492;81;20955;-73
2021/07/08 08:58:08;;;;;;;7.08;1.85;;;;;;;37.67;27.85;101576.34;1758356;81;21120;-70
2021/07/08 09:00:46;;;;;;;6.15;1.75;;;;;;;37.76;27.61;101580.03;1758531;81;20982;-70
2021/07/08 09:03:16;;;;;;;3.10;1.37;;;;;;;37.73;27.44;101573.97;1724005;83;21061;-70
2021/07/08 09:05:46;;;;;;;6.47;1.45;;;;;;;37.76;28.52;101568.53;1725012;83;20920;-71
2021/07/08 09:08:19;;;;;;;7.95;2.00;;;;;;;37.84;27.95;101575.47;1724831;83;21362;-72
2021/07/08 09:11:08;;;;;;;5.20;1.82;;;;;;;37.84;27.81;101573.59;1725019;83;21134;-70
2021/07/08 09:13:52;;;;;;;3.98;1.80;;;;;;;37.83;27.42;101567.81;1717776;83;20848;-70
2021/07/08 09:16:23;;;;;;;4.53;1.90;;;;;;;37.74;27.51;101566.58;1725171;81;20833;-70
2021/07/08 09:19:21;;;;;;;3.72;1.80;;;;;;;37.64;27.96;101563.16;1725136;83;21026;-71
2021/07/08 09:21:55;;;;;;;5.47;1.30;;;;;;;37.52;28.57;101560.46;1724686;82;20916;-71
2021/07/08 09:24:34;;;;;;;;;;;;;;;37.54;29.56;101573.91;1727561;83;21129;-70
2021/07/08 09:27:05;;;;;;;5.70;2.27;;;;;;;37.63;29.24;101573.81;1711235;83;20105;-69
2021/07/08 09:29:39;;;;;;;4.78;1.87;;;;;;;37.69;28.85;101577.47;1710845;83;20949;-70
2021/07/08 09:32:15;;;;;;;4.37;1.70;;;;;;;37.71;28.50;101574.77;1722105;82;21477;-69
2021/07/08 09:34:48;;;;;;;6.65;1.65;;;;;;;37.80;28.52;101579.27;1697374;83;20888;-70
2021/07/08 09:37:21;;;;;;;7.75;2.58;;;;;;;37.86;27.24;101580.98;1722251;82;21166;-70
2021/07/08 09:39:51;;;;;;;6.92;1.80;;;;;;;37.92;27.68;101586.02;1719708;83;20900;-70
2021/07/08 09:42:33;;;;;;;8.60;2.22;;;;;;;37.95;26.19;101577.28;1717758;83;20917;-70
2021/07/08 09:45:06;;;;;;;4.10;1.80;;;;;;;37.97;26.83;101569.64;1717818;83;20889;-70
2021/07/08 09:47:33;;;;;;;5.55;1.80;;;;;;;38.03;27.08;101576.88;1717727;83;20900;-69
2021/07/08 09:50:00;;;;;;;5.75;2.17;;;;;;;37.99;26.99;101574.33;1717670;83;21655;-70
2021/07/08 09:52:27;;;;;;;5.05;2.17;;;;;;;38.04;26.77;101570.34;1721903;83;20907;-70
2021/07/08 09:57:45;;;;;;;3.80;1.70;;;;;;;38.09;26.25;101569.03;1721853;82;20935;-71
2021/07/08 10:00:28;;;;;;;6.53;1.92;;;;;;;38.10;26.99;101568.48;1721913;82;20936;-70
2021/07/08 10:02:54;;;;;;;;;;;;;;;38.20;26.01;101566.41;1724383;83;21563;-70
2021/07/08 10:05:25;;;;;;;7.25;1.47;;;;;;;38.23;26.38;101568.11;1703589;84;20110;-70
2021/07/08 10:07:53;;;;;;;4.33;1.47;;;;;;;38.17;24.06;101568.30;1703923;84;20917;-70
2021/07/08 10:10:22;;;;;;;5.17;1.75;;;;;;;38.15;25.39;101570.77;1703756;84;21374;-71
2021/07/08 10:12:49;;;;;;;2.98;1.40;;;;;;;38.21;26.32;101566.16;1703697;84;20889;-71
2021/07/08 10:15:18;;;;;;;4.20;1.12;;;;;;;38.18;25.11;101562.57;1703753;84;21146;-70
2021/07/08 10:17:46;;;;;;;2.95;1.45;;;;;;;38.14;24.71;101560.88;1703724;84;21030;-70
2021/07/08 10:20:15;;;;;;;5.67;1.32;;;;;;;38.10;24.57;101559.72;1703798;84;21029;-72
2021/07/08 10:22:42;;;;;;;3.22;1.10;;;;;;;38.09;23.02;101554.52;1703700;84;20921;-69
2021/07/08 10:25:11;;;;;;;5.50;1.50;;;;;;;38.06;24.12;101555.82;1703695;84;20947;-69
2021/07/08 10:27:43;;;;;;;2.75;1.60;;;;;;;38.06;24.44;101543.49;1703794;84;21170;-69
2021/07/08 10:30:11;;;;;;;5.50;1.42;;;;;;;38.10;24.35;101546.02;1704072;84;20929;-69
2021/07/08 10:32:38;;;;;;;4.85;1.87;;;;;;;37.98;22.78;101551.32;1703861;84;21731;-69
2021/07/08 10:35:06;;;;;;;2.77;0.88;;;;;;;37.90;22.69;101549.83;1703920;84;20953;-71
2021/07/08 10:37:39;;;;;;;2.05;1.40;;;;;;;37.82;22.33;101551.10;1703721;84;21000;-70
2021/07/08 10:40:07;;;;;;;2.22;0.90;;;;;;;37.74;22.80;101544.67;1699822;84;21797;-68
2021/07/08 10:42:43;;;;;;;3.25;1.00;;;;;;;37.70;21.81;101539.41;1708495;83;20913;-69
2021/07/08 10:45:42;;;;;;;4.55;1.15;;;;;;;37.68;21.90;101558.81;1708633;83;20960;-69
2021/07/08 10:48:19;;;;;;;3.55;1.42;;;;;;;37.53;21.74;101546.23;1708610;84;21446;-71
2021/07/08 10:50:50;;;;;;;4.42;1.10;;;;;;;37.39;22.11;101552.59;1708898;83;21510;-70
2021/07/08 10:53:24;;;;;;;34.75;11.73;;;;;;;37.40;22.36;101552.04;1708546;83;21041;-69
2021/07/08 10:56:00;;;;;;;28.35;9.85;;;;;;;37.43;23.09;101542.80;1708438;84;21467;-69
2021/07/08 10:58:51;;;;;;;13.40;3.20;;;;;;;37.45;23.99;101539.83;1708631;84;20952;-70
2021/07/08 11:01:27;;;;;;;11.80;3.50;;;;;;;37.49;23.79;101533.61;1708441;83;21425;-64
2021/07/08 11:03:57;;;;;;;7.80;1.60;;;;;;;37.51;24.23;101543.77;1708470;84;21031;-63
2021/07/08 11:06:31;;;;;;;4.53;1.27;;;;;;;37.44;23.94;101543.62;1708788;84;21138;-65
2021/07/08 11:09:17;;;;;;;2.15;1.35;;;;;;;37.38;24.46;101537.27;1708354;83;20996;-64
2021/07/08 11:11:53;;;;;;;5.70;1.30;;;;;;;37.35;24.91;101533.64;1708764;84;20995;-64
2021/07/08 11:14:26;;;;;;;4.22;1.52;;;;;;;37.39;24.78;101536.72;1708578;84;21396;-64
2021/07/08 11:17:11;;;;;;;2.15;0.93;;;;;;;37.36;23.39;101539.41;1708638;83;21000;-65
2021/07/08 11:19:39;;;;;;;4.15;1.15;;;;;;;37.25;22.15;101542.52;1708576;84;21167;-65
2021/07/08 11:22:09;;;;;;;3.33;0.85;;;;;;;37.12;24.47;101540.93;1699260;83;20976;-65
2021/07/08 11:24:47;;;;;;;7.95;1.72;;;;;;;37.02;24.06;101542.63;1696319;84;20968;-65
2021/07/08 11:27:25;;;;;;;1.40;0.85;;;;;;;36.90;24.69;101544.06;1696336;84;21043;-66
2021/07/08 11:30:03;;;;;;;1.60;0.70;;;;;;;36.66;24.05;101541.45;1687862;84;20980;-68
2021/07/08 11:32:41;;;;;;;2.67;0.70;;;;;;;36.39;25.10;101538.41;1671252;84;21159;-67
2021/07/08 11:35:26;;;;;;;4.17;1.15;;;;;;;36.21;24.81;101535.86;1695470;84;21003;-74
2021/07/08 11:38:05;;;;;;;8.65;1.35;;;;;;;36.01;25.77;101540.31;1695308;83;20972;-69